Rp Zug — HE7351 — position and weather

sailwx.info

Track history (hours):
 
Tides and Currents Weather Stations Pressure Air Temp Water Temp Dewpoint Dewpoint Depression Visibility Wind Speed Wind Dir Waves Ship Positions

Rp Zug

Last reported at 2017-Feb-28 01:32 UTC. Time now 2017-Feb-28 01:33 UTC.
Position N 51°12' E 006°43'.

Length 110 m; draft 2.1 m.

Type: Tanker. MMSI: 269057351.

Date/timePositionNaut miles runAvg speedWind from/ knotsBaromVisibWave heightAir tempDewpointWater temp
2017-Feb-28 01:32N 51°12' E 006°43'0 0.0
2017-Feb-28 00:23N 51°12' E 006°43'0 0.0
2017-Feb-27 21:08N 51°12' E 006°43'0 0.0
2017-Feb-27 20:26N 51°12' E 006°43'0 0.0
2017-Feb-27 19:32N 51°12' E 006°43'0 0.0
2017-Feb-27 18:32N 51°12' E 006°43'0 0.0
2017-Feb-27 17:32N 51°12' E 006°43'0 0.0
2017-Feb-27 16:23N 51°12' E 006°43'0 0.0
2017-Feb-27 15:32N 51°12' E 006°43'0 0.0
2017-Feb-27 14:32N 51°12' E 006°43'0 0.0
2017-Feb-27 13:20N 51°12' E 006°43'0 0.0
2017-Feb-27 12:32N 51°12' E 006°43'0 0.0
2017-Feb-27 09:32N 51°12' E 006°43'0 0.0
2017-Feb-27 08:32N 51°12' E 006°43'0 0.0
2017-Feb-27 07:32N 51°12' E 006°43'0 0.0
2017-Feb-27 04:33N 51°12' E 006°43'0 0.0
2017-Feb-27 03:32N 51°12' E 006°43'0 0.0
2017-Feb-27 02:33N 51°12' E 006°43'0 0.0
2017-Feb-27 01:31N 51°12' E 006°43'0 0.0
2017-Feb-27 00:33N 51°12' E 006°43'0 0.0
2017-Feb-26 20:33N 51°12' E 006°43'0 0.0
2017-Feb-26 19:33N 51°12' E 006°43'0 0.0
2017-Feb-26 18:33N 51°12' E 006°43'0 0.0
2017-Feb-26 17:33N 51°12' E 006°43'0 0.0
2017-Feb-26 16:33N 51°12' E 006°43'0 0.0
2017-Feb-26 15:33N 51°12' E 006°43'0 0.0
2017-Feb-26 14:32N 51°12' E 006°43'0 0.0
2017-Feb-26 13:33N 51°12' E 006°43'0 0.0
2017-Feb-26 12:33N 51°12' E 006°43'0 0.0
2017-Feb-26 11:33N 51°12' E 006°43'0 0.0
2017-Feb-26 10:33N 51°12' E 006°43'0 0.0
2017-Feb-26 09:33N 51°12' E 006°43'0 0.0
2017-Feb-26 08:33N 51°12' E 006°43'0 0.0
2017-Feb-26 07:33N 51°12' E 006°43'0 0.0
2017-Feb-26 04:04N 51°12' E 006°43'0 0.0
2017-Feb-26 03:33N 51°12' E 006°43'2 2.1
2017-Feb-26 02:33N 51°11' E 006°45'16 8.0
2017-Feb-26 00:32N 50°58' E 006°60'8 7.6
2017-Feb-25 23:33N 50°50' E 006°59'1 0.1
2017-Feb-25 13:15N 50°49' E 006°60'0 0.0
2017-Feb-25 06:04N 50°49' E 006°60'0 0.0
2017-Feb-25 05:31N 50°49' E 006°60'0 0.0
2017-Feb-25 04:28N 50°49' E 006°60'0 0.0
2017-Feb-25 03:28N 50°49' E 006°60'0 0.0
2017-Feb-25 02:28N 50°49' E 006°60'0 0.0
2017-Feb-25 01:22N 50°49' E 006°60'0 0.0
2017-Feb-25 00:22N 50°49' E 006°60'0 0.0
2017-Feb-24 23:04N 50°49' E 006°60'0 0.0
2017-Feb-24 16:22N 50°49' E 006°60'0 0.0
2017-Feb-24 15:28N 50°49' E 006°60'0 0.0
2017-Feb-24 14:28N 50°49' E 006°60'0 0.0
2017-Feb-24 13:25N 50°49' E 006°60'0 0.0
2017-Feb-24 12:31N 50°49' E 006°60'0 0.0
2017-Feb-24 11:31N 50°49' E 006°60'0 0.0
2017-Feb-24 10:25N 50°49' E 006°60'0 0.0
2017-Feb-24 09:28N 50°49' E 006°60'0 0.0
2017-Feb-24 03:28N 50°49' E 006°60'0 0.0
2017-Feb-24 02:28N 50°49' E 006°60'0 0.0
2017-Feb-23 23:22N 50°49' E 006°60'0 0.0
2017-Feb-23 22:31N 50°49' E 006°60'0 0.0
2017-Feb-23 21:31N 50°49' E 006°60'0 0.0
2017-Feb-23 20:28N 50°49' E 006°60'0 0.0
2017-Feb-23 19:28N 50°49' E 006°60'0 0.0
2017-Feb-23 18:22N 50°49' E 006°60'0 0.0
2017-Feb-23 17:28N 50°49' E 006°60'  
2017-Feb-21 03:08N 49°13' E 008°23'  
2017-Feb-18 10:04N 49°12' E 008°23'  
Track history (hours):
 
Tides and Currents Weather Stations Pressure Air Temp Water Temp Dewpoint Dewpoint Depression Visibility Wind Speed Wind Dir Waves Ship Positions

Rp Zug

Last reported at 2017-Feb-28 01:32 UTC. Time now 2017-Feb-28 01:33 UTC.
Position N 51°12' E 006°43'.

Length 110 m; draft 2.1 m.

Type: Tanker. MMSI: 269057351.

Date/timePositionNaut miles runAvg speedWind from/ knotsBaromVisibWave heightAir tempDewpointWater temp
2017-Feb-28 01:32N 51°12' E 006°43'0 0.0
2017-Feb-28 00:23N 51°12' E 006°43'0 0.0
2017-Feb-27 21:08N 51°12' E 006°43'0 0.0
2017-Feb-27 20:26N 51°12' E 006°43'0 0.0
2017-Feb-27 19:32N 51°12' E 006°43'0 0.0
2017-Feb-27 18:32N 51°12' E 006°43'0 0.0
2017-Feb-27 17:32N 51°12' E 006°43'0 0.0
2017-Feb-27 16:23N 51°12' E 006°43'0 0.0
2017-Feb-27 15:32N 51°12' E 006°43'0 0.0
2017-Feb-27 14:32N 51°12' E 006°43'0 0.0
2017-Feb-27 13:20N 51°12' E 006°43'0 0.0
2017-Feb-27 12:32N 51°12' E 006°43'0 0.0
2017-Feb-27 09:32N 51°12' E 006°43'0 0.0
2017-Feb-27 08:32N 51°12' E 006°43'0 0.0
2017-Feb-27 07:32N 51°12' E 006°43'0 0.0
2017-Feb-27 04:33N 51°12' E 006°43'0 0.0
2017-Feb-27 03:32N 51°12' E 006°43'0 0.0
2017-Feb-27 02:33N 51°12' E 006°43'0 0.0
2017-Feb-27 01:31N 51°12' E 006°43'0 0.0
2017-Feb-27 00:33N 51°12' E 006°43'0 0.0
2017-Feb-26 20:33N 51°12' E 006°43'0 0.0
2017-Feb-26 19:33N 51°12' E 006°43'0 0.0
2017-Feb-26 18:33N 51°12' E 006°43'0 0.0
2017-Feb-26 17:33N 51°12' E 006°43'0 0.0
2017-Feb-26 16:33N 51°12' E 006°43'0 0.0
2017-Feb-26 15:33N 51°12' E 006°43'0 0.0
2017-Feb-26 14:32N 51°12' E 006°43'0 0.0
2017-Feb-26 13:33N 51°12' E 006°43'0 0.0
2017-Feb-26 12:33N 51°12' E 006°43'0 0.0
2017-Feb-26 11:33N 51°12' E 006°43'0 0.0
2017-Feb-26 10:33N 51°12' E 006°43'0 0.0
2017-Feb-26 09:33N 51°12' E 006°43'0 0.0
2017-Feb-26 08:33N 51°12' E 006°43'0 0.0
2017-Feb-26 07:33N 51°12' E 006°43'0 0.0
2017-Feb-26 04:04N 51°12' E 006°43'0 0.0
2017-Feb-26 03:33N 51°12' E 006°43'2 2.1
2017-Feb-26 02:33N 51°11' E 006°45'16 8.0
2017-Feb-26 00:32N 50°58' E 006°60'8 7.6
2017-Feb-25 23:33N 50°50' E 006°59'1 0.1
2017-Feb-25 13:15N 50°49' E 006°60'0 0.0
2017-Feb-25 06:04N 50°49' E 006°60'0 0.0
2017-Feb-25 05:31N 50°49' E 006°60'0 0.0
2017-Feb-25 04:28N 50°49' E 006°60'0 0.0
2017-Feb-25 03:28N 50°49' E 006°60'0 0.0
2017-Feb-25 02:28N 50°49' E 006°60'0 0.0
2017-Feb-25 01:22N 50°49' E 006°60'0 0.0
2017-Feb-25 00:22N 50°49' E 006°60'0 0.0
2017-Feb-24 23:04N 50°49' E 006°60'0 0.0
2017-Feb-24 16:22N 50°49' E 006°60'0 0.0
2017-Feb-24 15:28N 50°49' E 006°60'0 0.0
2017-Feb-24 14:28N 50°49' E 006°60'0 0.0
2017-Feb-24 13:25N 50°49' E 006°60'0 0.0
2017-Feb-24 12:31N 50°49' E 006°60'0 0.0
2017-Feb-24 11:31N 50°49' E 006°60'0 0.0
2017-Feb-24 10:25N 50°49' E 006°60'0 0.0
2017-Feb-24 09:28N 50°49' E 006°60'0 0.0
2017-Feb-24 03:28N 50°49' E 006°60'0 0.0
2017-Feb-24 02:28N 50°49' E 006°60'0 0.0
2017-Feb-23 23:22N 50°49' E 006°60'0 0.0
2017-Feb-23 22:31N 50°49' E 006°60'0 0.0
2017-Feb-23 21:31N 50°49' E 006°60'0 0.0
2017-Feb-23 20:28N 50°49' E 006°60'0 0.0
2017-Feb-23 19:28N 50°49' E 006°60'0 0.0
2017-Feb-23 18:22N 50°49' E 006°60'0 0.0
2017-Feb-23 17:28N 50°49' E 006°60'  
2017-Feb-21 03:08N 49°13' E 008°23'  
2017-Feb-18 10:04N 49°12' E 008°23'  

Dump ship's entire track history